Rosebud, Texas
Current Conditions -  °F | °C
As of 12:15 PM on Monday 22 Dec 2014 (Local Time) from KT35 Reporting Station
Clear Clear  
Wind Chill: 20°   Ceiling: Unl
Heat Index: 20°   Visibility: 10mi
Dew Point: 12°   Wind: 15mph
Humidity: 59%   Direction: 240°WSW
Pressure: 29.65"   Gusts: 22mph
Location:  31.07°N, 96.98°W
Report Text: KT35 221815Z AUTO 24013G19KT 10SM CLR 20/12 A2965 RMK AO2 T01970116
Loading
Personal Weather Stations






























Interactive Weather Map New forecast layout! Learn more

10-Day Weather Forecast

Advertisements
Track Severe Weather on mobile